Farrell, PA (16121)

11:10 AM EDT on July 29, 2016 (GMT -0400)
Frampton Rd | | Change Station

Elev 1109 ft 41.20 °N, 80.42 °W | Updated 13 minutes ago

Mostly Cloudy
Mostly Cloudy
75.6 °F
Feels Like 77 °F
N
1.1
Wind Variable Wind from South

Today
High -- | Low -- °F
--% Chance of Precip.
Yesterday
High -- | Low -- °F
Precip. -- in
Pressure 29.95 in
Visibility 10.0 miles
Clouds Mostly Cloudy 1000 ft
Mostly Cloudy 13000 ft
Heat Index 77 °F
Dew Point 68 °F
Humidity 77%
Rainfall 0.00 in
Snow Depth Not available.
6:15 AM 8:41 PM
Waning Crescent, 21% visible
METAR KYNG 291451Z VRB03KT 10SM BKN010 BKN130 24/20 A2997 RMK AO2 SLP142 T02440200 50008
Pressure 29.95 in
Visibility 10.0 miles
Clouds Mostly Cloudy 1000 ft
Mostly Cloudy 13000 ft
Heat Index 77 °F
Dew Point 68 °F
Humidity 77%
Rainfall 0.00 in
Snow Depth Not available.
6:15 AM 8:41 PM
Waning Crescent, 21% visible
METAR KYNG 291451Z VRB03KT 10SM BKN010 BKN130 24/20 A2997 RMK AO2 SLP142 T02440200 50008

10-Day Weather Forecast

Almanac

Astronomy

Jul. 29, 2016 Rise Set
Actual Time
Civil Twilight
Nautical Twilight
Astronomical Twilight
Moon
Length of Visible Light
Length of Day
Tomorrow will be .
, % of the Moon is Illuminated

Today's Extremes

State Highs State Lows

Community

WunderPhotos

Upload Photos

1,928,345 photos uploaded!

WunderBlog® & News

Nearby

Air Quality

  Air Quality AQ Index Pollutant
Not available.

Snow Depth

Station Depth Elevation

Earthquake Activity

City Distance Mag. Time & Date
Minimum magnitude displayed is 2.5.

Coastal Water Temperatures

Place Temperature

Stations

Nearby Weather Stations

Station Location Temp. Windchill Dew Point Humidity Wind Precip. Elev Updated Type
                   

Watches & Warnings

There are currently no watches in effect.